Time;durP1;ratioP1;P1;durP2;ratioP2;P2;SDS_P1;SDS_P2;PMS_P1;PMS_P2;Temp;Humidity;BMP_temperature;BMP_pressure;BME280_temperature;BME280_humidity;BME280_pressure;Samples;Min_cycle;Max_cycle;Signal;HPM_P1;HPM_P2
2021/10/11 00:02:19;;;;;;;4.53;1.45;;;;;;;18.97;75.37;101253.69;144992;649;6002;-76
2021/10/11 00:04:46;;;;;;;3.15;1.20;;;;;;;18.97;75.53;101248.41;144992;673;6002;-76
2021/10/11 00:07:12;;;;;;;4.25;1.17;;;;;;;19.02;75.72;101248.44;144992;563;6002;-75
2021/10/11 00:09:39;;;;;;;4.15;1.10;;;;;;;19.04;75.79;101251.94;144992;569;6002;-76
2021/10/11 00:12:06;;;;;;;2.03;1.20;;;;;;;19.06;75.86;101244.06;144992;662;6002;-75
2021/10/11 00:14:32;;;;;;;1.75;1.00;;;;;;;19.08;75.25;101245.84;144992;650;6002;-75
2021/10/11 00:16:59;;;;;;;2.97;1.30;;;;;;;19.09;75.31;101244.97;144992;569;6002;-76
2021/10/11 00:19:25;;;;;;;4.07;1.30;;;;;;;19.12;75.43;101244.97;144992;811;6002;-75
2021/10/11 00:21:52;;;;;;;2.60;1.10;;;;;;;19.12;75.78;101244.97;144992;646;6002;-76
2021/10/11 00:24:18;;;;;;;2.12;0.90;;;;;;;19.13;75.42;101236.19;144992;655;6002;-75
2021/10/11 00:26:45;;;;;;;2.85;1.10;;;;;;;19.12;75.02;101236.19;144992;571;6002;-76
2021/10/11 00:29:11;;;;;;;2.92;1.00;;;;;;;19.12;75.13;101234.44;144992;566;6002;-76
2021/10/11 00:31:37;;;;;;;2.40;0.90;;;;;;;19.16;74.62;101232.69;144991;707;6002;-75
2021/10/11 00:34:04;;;;;;;1.65;1.10;;;;;;;19.18;75.43;101229.22;144992;623;6002;-75
2021/10/11 00:36:30;;;;;;;3.03;1.10;;;;;;;19.17;74.76;101237.09;144992;574;6002;-76
2021/10/11 00:38:57;;;;;;;2.62;1.12;;;;;;;19.23;75.29;101220.44;144992;616;6002;-76
2021/10/11 00:41:27;;;;;;;3.17;0.90;;;;;;;19.24;75.07;101230.09;144992;675;6003;-75
2021/10/11 00:43:55;;;;;;;3.60;1.30;;;;;;;19.23;74.86;101228.31;144992;607;6002;-75
2021/10/11 00:46:21;;;;;;;4.68;1.10;;;;;;;19.25;74.76;101224.84;144992;636;6002;-75
2021/10/11 00:48:48;;;;;;;2.90;1.20;;;;;;;19.28;74.93;101226.56;144992;614;6003;-75
2021/10/11 00:51:14;;;;;;;3.20;1.20;;;;;;;19.29;74.68;101230.97;144992;586;6002;-77
2021/10/11 00:53:41;;;;;;;3.58;1.02;;;;;;;19.30;74.70;101216.94;144992;684;6002;-76
2021/10/11 00:56:07;;;;;;;5.50;1.25;;;;;;;19.28;74.63;101219.56;144992;663;6002;-74
2021/10/11 00:58:34;;;;;;;4.55;1.20;;;;;;;19.28;75.16;101223.94;144992;586;6002;-76
2021/10/11 01:01:00;;;;;;;4.25;1.17;;;;;;;19.29;75.14;101223.94;144992;600;6002;-77
2021/10/11 01:03:30;;;;;;;2.22;1.00;;;;;;;19.30;75.01;101220.44;144992;608;6002;-76
2021/10/11 01:05:56;;;;;;;3.15;1.70;;;;;;;19.28;74.78;101218.69;144992;677;6002;-76
2021/10/11 01:08:23;;;;;;;5.30;1.95;;;;;;;19.29;75.09;101215.19;144992;608;6002;-77
2021/10/11 01:10:49;;;;;;;4.45;1.40;;;;;;;19.31;74.70;101208.16;144991;663;6002;-76
2021/10/11 01:13:16;;;;;;;4.40;1.27;;;;;;;19.32;74.66;101208.16;144992;565;6002;-76
2021/10/11 01:15:42;;;;;;;5.15;1.33;;;;;;;19.32;74.87;101204.66;144992;615;6002;-76
2021/10/11 01:18:09;;;;;;;6.05;1.52;;;;;;;19.32;75.04;101202.87;144992;662;6002;-76
2021/10/11 01:20:35;;;;;;;2.50;1.25;;;;;;;19.33;74.85;101188.00;144992;573;6002;-75
2021/10/11 01:23:03;;;;;;;2.92;1.05;;;;;;;19.34;75.32;101181.84;144992;679;6002;-76
2021/10/11 01:25:29;;;;;;;3.00;1.30;;;;;;;19.33;74.44;101185.38;144992;591;6002;-77
2021/10/11 01:27:55;;;;;;;3.75;1.25;;;;;;;19.37;74.66;101187.09;144992;569;6002;-76
2021/10/11 01:30:22;;;;;;;3.58;0.98;;;;;;;19.40;75.09;101177.44;144992;585;6002;-76
2021/10/11 01:32:49;;;;;;;5.18;1.20;;;;;;;19.40;74.92;101179.22;144992;570;6002;-77
2021/10/11 01:35:18;;;;;;;6.15;1.65;;;;;;;19.41;74.48;101188.88;144992;572;6002;-77
2021/10/11 01:37:47;;;;;;;3.70;1.92;;;;;;;19.40;74.47;101180.09;144992;571;6002;-78
2021/10/11 01:40:15;;;;;;;1.92;1.40;;;;;;;19.44;74.73;101182.72;144992;621;6002;-79
2021/10/11 01:42:42;;;;;;;2.90;1.62;;;;;;;19.43;75.06;101181.84;144992;655;6002;-76
2021/10/11 01:45:09;;;;;;;3.78;1.73;;;;;;;19.43;75.10;101184.47;144991;640;6002;-76
2021/10/11 01:47:35;;;;;;;4.32;1.55;;;;;;;19.44;74.43;101183.63;144992;660;6002;-76
2021/10/11 01:50:03;;;;;;;4.87;1.87;;;;;;;19.43;74.84;101184.47;144992;581;6002;-76
2021/10/11 01:52:29;;;;;;;4.32;1.73;;;;;;;19.44;74.58;101178.34;144992;566;6002;-77
2021/10/11 01:54:56;;;;;;;2.60;1.50;;;;;;;19.46;74.64;101178.34;144992;601;6002;-76
2021/10/11 01:57:22;;;;;;;4.03;1.55;;;;;;;19.46;75.11;101176.59;144992;565;6002;-76
2021/10/11 01:59:49;;;;;;;6.53;2.17;;;;;;;19.47;74.47;101175.72;144992;596;6002;-75
2021/10/11 02:02:15;;;;;;;4.50;3.42;;;;;;;19.48;75.07;101174.81;144992;645;6002;-76
2021/10/11 02:04:41;;;;;;;2.87;1.85;;;;;;;19.48;74.56;101161.66;144992;590;6002;-76
2021/10/11 02:07:08;;;;;;;2.70;1.67;;;;;;;19.47;74.76;101167.81;144992;566;6002;-76
2021/10/11 02:09:34;;;;;;;4.62;1.70;;;;;;;19.46;75.28;101165.19;144992;569;6002;-75
2021/10/11 02:12:01;;;;;;;6.40;1.77;;;;;;;19.47;74.61;101172.19;144992;635;6002;-76
2021/10/11 02:14:27;;;;;;;3.45;1.80;;;;;;;19.46;74.54;101167.81;144992;598;6002;-77
2021/10/11 02:16:56;;;;;;;2.00;1.60;;;;;;;19.47;74.38;101173.09;144992;582;6002;-76
2021/10/11 02:19:22;;;;;;;3.83;1.58;;;;;;;19.50;74.73;101186.25;144991;565;6002;-76
2021/10/11 02:21:49;;;;;;;4.47;1.80;;;;;;;19.52;74.68;101186.25;144992;610;6002;-76
2021/10/11 02:24:15;;;;;;;2.97;1.60;;;;;;;19.53;74.86;101194.13;144992;593;6002;-77
2021/10/11 02:26:41;;;;;;;3.92;2.08;;;;;;;19.55;74.30;101208.19;144992;577;6002;-78
2021/10/11 02:29:09;;;;;;;4.40;1.65;;;;;;;19.56;74.50;101212.56;144992;591;6002;-75
2021/10/11 02:31:36;;;;;;;3.67;1.83;;;;;;;19.56;74.52;101225.72;144992;600;6002;-75
2021/10/11 02:34:02;;;;;;;4.00;1.87;;;;;;;19.58;75.05;101231.00;144992;600;6002;-77
2021/10/11 02:36:29;;;;;;;4.07;2.00;;;;;;;19.57;74.42;101245.94;144992;599;6002;-75
2021/10/11 02:38:55;;;;;;;4.05;2.03;;;;;;;19.52;75.40;101250.31;144992;577;6002;-75
2021/10/11 02:41:21;;;;;;;3.97;2.17;;;;;;;19.44;75.22;101257.34;144992;565;6002;-76
2021/10/11 02:43:48;;;;;;;4.10;2.40;;;;;;;19.43;75.12;101259.97;144992;666;6015;-76
2021/10/11 02:46:14;;;;;;;8.82;3.33;;;;;;;19.41;75.49;101262.59;144992;619;6002;-76
2021/10/11 02:48:41;;;;;;;8.38;4.80;;;;;;;19.39;75.22;101256.41;144992;590;6003;-75
2021/10/11 02:51:07;;;;;;;9.27;6.57;;;;;;;19.39;75.63;101266.94;144992;651;6002;-76
2021/10/11 02:53:34;;;;;;;10.20;5.85;;;;;;;19.39;75.39;101269.59;144992;613;6002;-76
2021/10/11 02:56:00;;;;;;;8.73;5.70;;;;;;;19.38;75.31;101275.75;144992;651;6003;-76
2021/10/11 02:58:27;;;;;;;9.13;5.15;;;;;;;19.37;75.70;101276.59;144992;569;6002;-77
2021/10/11 03:00:53;;;;;;;7.87;5.22;;;;;;;19.36;76.04;101280.13;144992;602;6002;-74
2021/10/11 03:03:20;;;;;;;7.82;4.05;;;;;;;19.37;76.17;101266.06;144992;619;6002;-76
2021/10/11 03:05:46;;;;;;;6.03;3.75;;;;;;;19.39;76.14;101269.59;144992;578;6002;-75
2021/10/11 03:08:13;;;;;;;4.62;3.25;;;;;;;19.40;75.72;101271.34;144992;645;6002;-76
2021/10/11 03:10:39;;;;;;;4.25;2.90;;;;;;;19.40;75.61;101251.16;144992;584;6002;-76
2021/10/11 03:13:05;;;;;;;4.45;2.67;;;;;;;19.42;75.80;101259.06;144992;638;6002;-76
2021/10/11 03:15:32;;;;;;;4.00;2.47;;;;;;;19.42;75.81;101256.44;144992;653;6002;-76
2021/10/11 03:17:58;;;;;;;3.97;2.22;;;;;;;19.41;76.51;101246.78;144992;570;6002;-76
2021/10/11 03:20:25;;;;;;;4.15;2.37;;;;;;;19.32;76.58;101250.28;144992;587;6002;-76
2021/10/11 03:22:51;;;;;;;4.93;2.30;;;;;;;19.30;76.63;101249.41;144992;565;6002;-76
2021/10/11 03:25:19;;;;;;;3.60;2.10;;;;;;;19.28;76.67;101230.09;144992;564;6002;-76
2021/10/11 03:27:45;;;;;;;3.92;2.30;;;;;;;19.21;76.46;101239.72;144992;612;6002;-76
2021/10/11 03:30:12;;;;;;;6.25;3.05;;;;;;;19.19;76.82;101245.88;144992;589;6002;-76
2021/10/11 03:32:38;;;;;;;5.62;2.90;;;;;;;19.18;77.00;101242.38;144992;597;6002;-76
2021/10/11 03:35:05;;;;;;;4.72;2.92;;;;;;;19.20;77.17;101224.81;144992;582;6002;-77
2021/10/11 03:37:31;;;;;;;6.10;3.37;;;;;;;19.21;76.56;101223.94;144992;576;6002;-77
2021/10/11 03:39:59;;;;;;;7.05;3.15;;;;;;;19.19;77.44;101217.78;144992;624;6002;-75
2021/10/11 03:42:26;;;;;;;3.85;2.50;;;;;;;19.18;76.77;101220.41;144992;643;6002;-77
2021/10/11 03:44:52;;;;;;;4.85;2.70;;;;;;;19.14;77.10;101221.31;144992;566;6002;-76
2021/10/11 03:47:18;;;;;;;6.35;3.53;;;;;;;19.03;77.07;101213.37;144992;649;6002;-75
2021/10/11 03:49:45;;;;;;;3.50;2.78;;;;;;;18.96;77.99;101208.94;144992;562;6002;-75
2021/10/11 03:52:11;;;;;;;4.90;2.87;;;;;;;18.95;77.61;101209.84;144992;572;6002;-75
2021/10/11 03:54:38;;;;;;;5.35;2.70;;;;;;;18.98;77.88;101209.84;144992;617;6002;-75
2021/10/11 03:57:04;;;;;;;4.75;2.72;;;;;;;19.01;77.82;101205.47;144992;626;6002;-76
2021/10/11 03:59:31;;;;;;;3.28;2.33;;;;;;;19.05;77.79;101190.56;144992;571;6002;-76
2021/10/11 04:01:57;;;;;;;3.60;2.30;;;;;;;19.03;77.88;101181.81;144992;672;6002;-76
2021/10/11 04:04:23;;;;;;;2.33;1.90;;;;;;;18.99;77.34;101164.25;144992;609;6002;-76
2021/10/11 04:06:52;;;;;;;2.70;1.42;;;;;;;18.93;77.91;101162.50;144992;657;6002;-75
2021/10/11 04:09:25;;;;;;;2.55;1.50;;;;;;;18.93;77.82;101165.13;144992;565;6002;-75
2021/10/11 04:11:53;;;;;;;2.78;1.65;;;;;;;18.96;77.79;101148.44;144992;597;6002;-76
2021/10/11 04:14:19;;;;;;;2.97;1.55;;;;;;;18.98;77.99;101150.22;144992;639;6002;-75
2021/10/11 04:16:45;;;;;;;5.25;1.67;;;;;;;19.01;77.08;101144.09;144992;687;6002;-75
2021/10/11 04:19:12;;;;;;;3.25;1.60;;;;;;;19.03;77.65;101123.91;144991;624;6002;-76
2021/10/11 04:21:42;;;;;;;1.40;1.20;;;;;;;18.99;77.26;101122.16;144992;589;6011;-76
2021/10/11 04:24:09;;;;;;;2.87;1.17;;;;;;;18.90;77.23;101116.88;144992;626;6002;-75
2021/10/11 04:26:36;;;;;;;1.73;1.27;;;;;;;18.90;77.23;101116.88;144992;603;6002;-78
2021/10/11 04:29:02;;;;;;;3.53;1.20;;;;;;;18.92;77.25;101109.88;144992;600;6002;-77
2021/10/11 04:31:29;;;;;;;3.95;1.25;;;;;;;18.93;77.19;101098.47;144992;649;6002;-75
2021/10/11 04:33:56;;;;;;;2.12;1.20;;;;;;;18.90;76.97;101114.22;144992;661;6002;-76
2021/10/11 04:36:25;;;;;;;2.25;1.20;;;;;;;18.80;77.14;101098.44;144992;610;6002;-77
2021/10/11 04:38:53;;;;;;;2.28;1.20;;;;;;;18.76;77.14;101107.19;144992;628;6002;-74
2021/10/11 04:41:20;;;;;;;1.75;0.82;;;;;;;18.77;77.43;101106.31;144992;655;6002;-76
2021/10/11 04:43:49;;;;;;;2.55;1.62;;;;;;;18.76;77.13;101112.44;144992;593;6002;-75
2021/10/11 04:46:16;;;;;;;3.72;1.90;;;;;;;18.72;77.40;101115.91;144992;569;6002;-76
2021/10/11 04:48:42;;;;;;;3.67;2.10;;;;;;;18.74;77.05;101119.44;144992;634;6002;-76
2021/10/11 04:51:09;;;;;;;3.65;2.22;;;;;;;18.75;77.25;101121.19;144992;572;6002;-74
2021/10/11 04:53:37;;;;;;;2.75;2.28;;;;;;;18.72;77.28;101123.81;144992;655;6002;-76
2021/10/11 04:56:04;;;;;;;3.65;2.37;;;;;;;18.73;77.29;101115.06;144992;565;6002;-79
2021/10/11 04:58:30;;;;;;;3.65;2.00;;;;;;;18.79;77.53;101119.47;144992;612;6002;-78
2021/10/11 05:00:56;;;;;;;4.22;2.42;;;;;;;18.82;76.90;101122.97;144991;569;6002;-77
2021/10/11 05:03:23;;;;;;;6.22;2.35;;;;;;;18.88;77.55;101134.41;144992;790;6002;-76
2021/10/11 05:05:49;;;;;;;3.67;2.83;;;;;;;18.93;76.84;101137.91;144992;585;6002;-76
2021/10/11 05:08:16;;;;;;;3.42;2.30;;;;;;;18.96;77.46;101143.19;144992;712;6002;-75
2021/10/11 05:10:42;;;;;;;3.97;2.50;;;;;;;19.00;77.16;101143.19;144993;635;6002;-77
2021/10/11 05:13:09;;;;;;;4.35;3.05;;;;;;;19.03;77.13;101152.84;144993;610;6002;-75
2021/10/11 05:15:35;;;;;;;6.80;3.20;;;;;;;19.07;77.00;101156.38;144993;576;6002;-78
2021/10/11 05:18:02;;;;;;;4.90;3.20;;;;;;;19.09;77.15;101154.59;144993;569;6017;-76
2021/10/11 05:20:32;;;;;;;6.62;3.30;;;;;;;19.11;76.79;101152.88;144993;565;6002;-77
2021/10/11 05:23:01;;;;;;;5.60;2.85;;;;;;;19.10;77.68;101151.97;144993;764;6002;-77
2021/10/11 05:25:28;;;;;;;4.53;3.15;;;;;;;19.06;77.83;101147.59;144993;643;6002;-77
2021/10/11 05:27:55;;;;;;;8.05;3.62;;;;;;;19.05;77.51;101137.94;144993;671;6002;-77
2021/10/11 05:30:22;;;;;;;5.22;3.20;;;;;;;19.08;76.98;101140.59;144993;629;6002;-77
2021/10/11 05:32:48;;;;;;;4.37;3.12;;;;;;;19.11;77.05;101137.09;144993;632;6002;-79
2021/10/11 05:35:15;;;;;;;4.85;3.20;;;;;;;19.14;77.57;101135.34;144993;570;6002;-76
2021/10/11 05:37:41;;;;;;;3.95;2.72;;;;;;;19.11;77.59;101137.97;144993;571;6002;-77
2021/10/11 05:40:08;;;;;;;4.57;2.97;;;;;;;19.15;77.63;101130.94;144993;605;6002;-77
2021/10/11 05:42:35;;;;;;;5.65;3.25;;;;;;;19.20;77.57;101127.44;144992;619;6002;-76
2021/10/11 05:45:04;;;;;;;4.35;3.78;;;;;;;19.24;77.09;101132.72;144991;641;6002;-76
2021/10/11 05:47:31;;;;;;;5.53;3.45;;;;;;;19.28;76.88;101121.28;144992;592;6002;-77
2021/10/11 05:49:57;;;;;;;4.65;3.35;;;;;;;19.33;77.02;101132.72;144991;667;6002;-76
2021/10/11 05:52:27;;;;;;;3.30;2.70;;;;;;;19.37;76.79;101131.81;144992;683;6002;-78
2021/10/11 05:54:54;;;;;;;4.60;2.80;;;;;;;19.42;76.84;101137.97;144992;690;6002;-77
2021/10/11 05:57:20;;;;;;;6.55;2.67;;;;;;;19.46;76.80;101136.22;144993;566;6002;-77
2021/10/11 05:59:47;;;;;;;5.57;3.30;;;;;;;19.50;77.00;101132.69;144993;642;6002;-77
2021/10/11 06:02:13;;;;;;;7.28;3.62;;;;;;;19.52;76.59;101133.59;144993;638;6002;-77
2021/10/11 06:04:41;;;;;;;4.12;2.62;;;;;;;19.54;76.24;101122.16;144993;613;6002;-77
2021/10/11 06:07:07;;;;;;;3.95;2.25;;;;;;;19.55;76.50;101108.13;144993;643;6002;-76
2021/10/11 06:09:34;;;;;;;5.70;2.83;;;;;;;19.55;77.03;101107.22;144993;675;6002;-77
2021/10/11 06:12:00;;;;;;;13.40;2.85;;;;;;;19.55;76.81;101107.22;144993;564;6002;-77
2021/10/11 06:14:27;;;;;;;4.22;2.90;;;;;;;19.55;76.40;101113.41;144993;623;6002;-77
2021/10/11 06:16:53;;;;;;;4.97;2.90;;;;;;;19.56;76.46;101114.25;144993;660;6002;-76
2021/10/11 06:19:20;;;;;;;4.72;2.67;;;;;;;19.60;76.92;101107.22;144993;655;6002;-77
2021/10/11 06:21:47;;;;;;;5.47;2.50;;;;;;;19.61;76.41;101111.63;144993;611;6002;-76
2021/10/11 06:24:14;;;;;;;5.00;2.28;;;;;;;19.64;76.28;101124.78;144993;670;6003;-78
2021/10/11 06:26:41;;;;;;;4.65;2.87;;;;;;;19.65;76.36;101119.53;144993;601;6002;-76
2021/10/11 06:29:07;;;;;;;13.10;7.75;;;;;;;19.66;76.22;101123.03;144993;591;6002;-77
2021/10/11 06:31:34;;;;;;;10.82;7.60;;;;;;;19.68;76.83;101123.94;144993;657;6002;-77
2021/10/11 06:34:00;;;;;;;10.60;7.82;;;;;;;19.69;76.17;101126.56;144993;605;6002;-78
2021/10/11 06:36:28;;;;;;;10.18;7.90;;;;;;;19.72;76.57;101128.28;144993;578;6002;-80
2021/10/11 06:38:55;;;;;;;12.32;6.25;;;;;;;19.74;75.88;101129.16;144993;583;6002;-78
2021/10/11 06:41:21;;;;;;;10.85;7.15;;;;;;;19.77;76.56;101133.59;144993;650;6002;-78
2021/10/11 06:43:48;;;;;;;8.82;5.80;;;;;;;19.78;75.67;101136.22;144993;585;6002;-77
2021/10/11 06:46:16;;;;;;;6.03;4.90;;;;;;;19.79;75.88;101143.25;144993;646;6002;-79
2021/10/11 06:48:42;;;;;;;9.15;6.47;;;;;;;19.82;76.53;101148.53;144993;586;6002;-79
2021/10/11 06:51:08;;;;;;;9.50;7.37;;;;;;;19.84;76.52;101152.03;144993;628;5002;-78
2021/10/11 06:53:36;;;;;;;11.15;6.65;;;;;;;19.86;76.62;101150.25;144994;600;5002;-78
2021/10/11 06:56:05;;;;;;;7.37;5.72;;;;;;;19.87;76.14;101146.75;144994;582;5002;-78
2021/10/11 06:58:32;;;;;;;7.37;4.62;;;;;;;19.87;76.27;101146.75;144994;639;5002;-78
2021/10/11 07:00:58;;;;;;;5.85;4.00;;;;;;;19.92;76.21;101155.50;144994;578;5002;-76
2021/10/11 07:03:25;;;;;;;5.75;3.72;;;;;;;20.04;76.86;101161.63;144994;571;5002;-76
2021/10/11 07:05:57;;;;;;;5.93;2.95;;;;;;;20.26;77.29;101176.50;144994;587;5002;-79
2021/10/11 07:08:24;;;;;;;9.10;3.97;;;;;;;20.56;76.78;101176.41;144994;599;5002;-77
2021/10/11 07:10:54;;;;;;;9.05;5.15;;;;;;;20.79;75.54;101171.03;144994;587;5002;-79
2021/10/11 07:13:22;;;;;;;6.90;5.05;;;;;;;20.94;76.08;101170.09;144994;574;5002;-78
2021/10/11 07:15:49;;;;;;;8.98;5.10;;;;;;;21.07;75.72;101171.75;144994;596;5002;-78
2021/10/11 07:18:15;;;;;;;7.10;4.60;;;;;;;21.15;75.44;101175.22;144994;577;5002;-77
2021/10/11 07:20:44;;;;;;;4.20;2.60;;;;;;;21.23;74.99;101179.59;144994;643;5002;-79
2021/10/11 07:23:12;;;;;;;11.50;4.12;;;;;;;21.20;74.04;101197.22;144994;626;5003;-79
2021/10/11 07:25:41;;;;;;;7.43;4.37;;;;;;;21.14;75.48;101199.87;144994;572;5002;-76
2021/10/11 07:28:08;;;;;;;5.15;3.92;;;;;;;21.16;75.56;101207.81;144994;591;5002;-78
2021/10/11 07:30:34;;;;;;;6.28;4.50;;;;;;;21.19;74.87;101194.59;144994;565;5002;-80
2021/10/11 07:33:02;;;;;;;6.60;4.10;;;;;;;21.23;74.76;101200.72;144994;590;5002;-77
2021/10/11 07:35:29;;;;;;;7.97;4.70;;;;;;;21.19;74.69;101191.94;144994;582;5002;-78
2021/10/11 07:37:56;;;;;;;5.60;3.85;;;;;;;21.22;74.51;101212.16;144994;595;5002;-79
2021/10/11 07:40:23;;;;;;;5.47;3.87;;;;;;;21.22;75.14;101210.41;144994;575;5002;-80
2021/10/11 07:42:49;;;;;;;5.72;3.90;;;;;;;21.25;74.81;101212.13;144994;577;5002;-82
2021/10/11 07:45:17;;;;;;;7.80;4.30;;;;;;;21.28;74.90;101205.06;144994;607;5002;-79
2021/10/11 07:47:44;;;;;;;8.23;5.20;;;;;;;21.32;74.75;101204.16;144994;565;5002;-79
2021/10/11 07:50:11;;;;;;;4.22;2.00;;;;;;;21.41;74.11;101203.19;144994;625;5002;-81
2021/10/11 07:52:38;;;;;;;7.35;2.37;;;;;;;21.36;73.95;101197.97;144994;579;5002;-81
2021/10/11 07:55:07;;;;;;;4.87;2.15;;;;;;;21.33;74.47;101199.75;144994;564;5002;-81
2021/10/11 07:57:33;;;;;;;5.43;2.40;;;;;;;21.35;74.00;101203.28;144994;581;5002;-80
2021/10/11 08:00:03;;;;;;;4.53;2.40;;;;;;;21.39;73.89;101210.25;144994;614;5002;-80
2021/10/11 08:02:30;;;;;;;4.47;2.30;;;;;;;21.40;74.08;101209.38;144994;608;5002;-79
2021/10/11 08:04:58;;;;;;;6.78;3.20;;;;;;;21.41;73.89;101202.34;144994;573;5002;-80
2021/10/11 08:07:24;;;;;;;4.93;3.80;;;;;;;21.44;74.08;101195.25;144994;579;5002;-78
2021/10/11 08:09:51;;;;;;;6.20;3.25;;;;;;;21.53;73.54;101186.44;144994;567;5002;-80
2021/10/11 08:12:17;;;;;;;6.12;1.73;;;;;;;21.68;73.22;101190.69;144994;599;5002;-80
2021/10/11 08:14:44;;;;;;;4.45;1.55;;;;;;;21.85;72.91;101190.56;144994;587;5002;-79
2021/10/11 08:17:13;;;;;;;5.78;1.58;;;;;;;21.95;68.33;101194.84;144994;634;5002;-81
2021/10/11 08:19:39;;;;;;;4.15;1.48;;;;;;;22.09;72.18;101203.50;144994;593;5002;-81
2021/10/11 08:22:06;;;;;;;3.12;1.40;;;;;;;22.23;70.80;101197.22;144994;626;5002;-80
2021/10/11 08:24:33;;;;;;;1.98;0.80;;;;;;;22.30;70.43;101191.00;144994;604;5002;-80
2021/10/11 08:26:59;;;;;;;3.72;0.70;;;;;;;22.31;68.43;101176.88;144994;585;5002;-80
2021/10/11 08:29:26;;;;;;;3.35;0.80;;;;;;;22.30;68.12;101174.25;144994;581;5002;-79
2021/10/11 08:31:53;;;;;;;2.05;0.98;;;;;;;22.27;67.98;101180.41;144994;574;5002;-80
2021/10/11 08:34:20;;;;;;;4.65;1.35;;;;;;;22.28;67.93;101179.53;144994;566;5002;-79
2021/10/11 08:36:46;;;;;;;3.40;1.23;;;;;;;22.21;66.42;101165.50;144994;571;5002;-79
2021/10/11 08:39:13;;;;;;;3.42;1.17;;;;;;;22.27;67.23;101172.47;144994;564;5002;-79
2021/10/11 08:41:41;;;;;;;2.53;0.90;;;;;;;22.39;67.94;101176.78;144994;566;5002;-79
2021/10/11 08:44:10;;;;;;;1.73;0.65;;;;;;;22.50;66.42;101185.47;144994;585;5002;-79
2021/10/11 08:46:37;;;;;;;2.95;0.43;;;;;;;22.53;65.20;101189.87;144994;569;5002;-80
2021/10/11 08:49:03;;;;;;;2.50;0.80;;;;;;;22.59;63.17;101187.16;144994;589;5002;-78
2021/10/11 08:51:30;;;;;;;2.08;0.60;;;;;;;22.54;58.08;101181.00;144994;645;5002;-82
2021/10/11 08:53:56;;;;;;;1.25;0.30;;;;;;;22.64;60.94;101180.88;144994;616;5002;-81
2021/10/11 08:56:23;;;;;;;5.18;1.50;;;;;;;22.63;62.76;101171.19;144994;625;5002;-80
2021/10/11 08:58:50;;;;;;;6.85;3.67;;;;;;;22.53;58.47;101166.91;144994;687;5002;-79
2021/10/11 09:01:22;;;;;;;12.10;9.73;;;;;;;22.63;59.42;101170.31;144994;617;5002;-80
2021/10/11 09:03:49;;;;;;;1.25;0.55;;;;;;;22.83;57.91;101175.34;144994;624;5002;-81
2021/10/11 09:06:16;;;;;;;5.15;3.20;;;;;;;22.81;59.16;101164.78;144994;600;5002;-79
2021/10/11 09:08:43;;;;;;;4.03;1.92;;;;;;;22.85;56.15;101167.41;144994;574;5002;-81
2021/10/11 09:11:11;;;;;;;2.78;1.33;;;;;;;22.99;58.94;101173.38;144994;595;5002;-81
2021/10/11 09:13:51;;;;;;;2.83;0.80;;;;;;;23.20;58.45;101173.97;144994;638;5002;-81
2021/10/11 09:16:34;;;;;;;1.60;0.60;;;;;;;23.13;54.26;101168.78;144994;597;5002;-81
2021/10/11 09:19:24;;;;;;;2.95;1.80;;;;;;;23.25;58.00;101175.63;144994;564;5002;-80
2021/10/11 09:21:51;;;;;;;4.12;3.47;;;;;;;23.29;56.76;101171.16;144994;601;5002;-77
2021/10/11 09:24:21;;;;;;;5.28;3.12;;;;;;;23.42;56.88;101164.78;144994;600;5002;-76
2021/10/11 09:26:53;;;;;;;1.95;0.98;;;;;;;23.36;55.72;101170.19;144994;582;5002;-78
2021/10/11 09:29:39;;;;;;;8.85;7.62;;;;;;;23.41;56.86;101183.34;144994;573;5002;-79
2021/10/11 09:32:10;;;;;;;37.15;30.40;;;;;;;23.38;55.06;101178.97;144994;599;5002;-79
2021/10/11 09:34:41;;;;;;;24.58;21.70;;;;;;;23.27;56.25;101178.25;144994;585;5002;-79
2021/10/11 09:37:13;;;;;;;21.80;16.05;;;;;;;23.30;54.81;101178.22;144994;608;5002;-78
2021/10/11 09:39:43;;;;;;;5.25;3.65;;;;;;;23.26;55.65;101173.88;144994;682;5002;-79
2021/10/11 09:42:14;;;;;;;3.28;2.45;;;;;;;23.25;55.47;101162.41;144994;576;5002;-79
2021/10/11 09:44:54;;;;;;;10.13;6.10;;;;;;;23.24;54.75;101163.31;144994;592;5002;-79
2021/10/11 09:47:40;;;;;;;3.45;2.95;;;;;;;23.32;52.21;101166.72;144994;575;5002;-78
2021/10/11 09:50:09;;;;;;;2.53;0.93;;;;;;;23.24;50.38;101163.31;144994;576;5002;-79
2021/10/11 09:52:38;;;;;;;4.78;3.45;;;;;;;23.38;54.53;101151.59;144994;602;5002;-79
2021/10/11 09:55:06;;;;;;;3.30;0.65;;;;;;;23.47;54.16;101160.28;144994;610;5002;-79
2021/10/11 09:57:33;;;;;;;1.83;0.40;;;;;;;23.44;54.43;101160.31;144994;569;5002;-80
2021/10/11 10:00:04;;;;;;;0.75;0.47;;;;;;;23.37;53.88;101150.75;144994;662;5002;-78
2021/10/11 10:02:31;;;;;;;2.25;0.90;;;;;;;23.21;53.53;101160.72;144994;577;5002;-78
2021/10/11 10:05:02;;;;;;;2.58;0.70;;;;;;;23.06;54.56;101153.81;144994;585;5002;-76
2021/10/11 10:07:33;;;;;;;1.10;0.70;;;;;;;22.99;53.97;101144.25;144994;632;5002;-77
2021/10/11 10:10:05;;;;;;;1.37;0.98;;;;;;;22.86;55.50;101156.78;144993;649;5002;-78
2021/10/11 10:12:43;;;;;;;3.40;0.95;;;;;;;22.93;54.92;101157.56;144994;592;5002;-77
2021/10/11 10:15:10;;;;;;;2.37;0.70;;;;;;;22.90;55.08;101147.03;144994;592;5002;-76
2021/10/11 10:17:36;;;;;;;0.93;0.55;;;;;;;22.84;55.17;101145.31;144994;575;5002;-78
2021/10/11 10:20:11;;;;;;;1.75;0.65;;;;;;;22.80;55.38;101141.00;144994;570;5002;-78
2021/10/11 10:22:50;;;;;;;1.73;0.60;;;;;;;22.75;54.81;101138.41;144994;585;5002;-78
2021/10/11 10:25:16;;;;;;;3.17;0.98;;;;;;;22.60;54.56;101136.81;144994;573;5002;-78
2021/10/11 10:27:43;;;;;;;1.83;0.70;;;;;;;22.60;52.45;101120.09;144994;594;5002;-77
2021/10/11 10:30:25;;;;;;;0.82;0.50;;;;;;;22.60;54.07;101123.59;144994;588;5002;-79
2021/10/11 10:32:57;;;;;;;1.62;0.70;;;;;;;22.60;55.27;101115.66;144994;610;5002;-78
2021/10/11 10:35:26;;;;;;;9.68;0.70;;;;;;;22.62;55.27;101113.00;144994;563;5002;-78
2021/10/11 10:37:52;;;;;;;1.25;0.75;;;;;;;22.54;55.54;101114.87;144994;569;5002;-78
2021/10/11 10:40:20;;;;;;;2.60;0.60;;;;;;;22.64;55.25;101116.50;144994;604;5002;-78
2021/10/11 10:42:47;;;;;;;1.58;0.60;;;;;;;22.60;55.57;101117.44;144994;579;5002;-80
2021/10/11 10:45:22;;;;;;;3.35;0.55;;;;;;;22.73;54.74;101110.19;144994;608;5002;-78
2021/10/11 10:47:50;;;;;;;2.80;0.80;;;;;;;22.69;54.89;101109.38;144994;581;5002;-79
2021/10/11 10:50:22;;;;;;;1.42;0.88;;;;;;;22.78;54.67;101114.53;144994;593;5002;-80
2021/10/11 10:52:53;;;;;;;2.47;1.85;;;;;;;22.63;55.26;101104.16;144994;645;5002;-80
2021/10/11 10:55:19;;;;;;;3.40;1.35;;;;;;;22.59;55.35;101100.69;144994;682;5002;-78
2021/10/11 10:57:46;;;;;;;5.68;1.83;;;;;;;22.54;55.63;101086.66;144994;606;5002;-79
2021/10/11 11:00:17;;;;;;;2.90;1.08;;;;;;;22.55;56.15;101092.81;144994;573;5002;-78
2021/10/11 11:02:53;;;;;;;5.78;2.83;;;;;;;22.52;56.57;101087.56;144994;663;5002;-79
2021/10/11 11:05:22;;;;;;;4.97;1.00;;;;;;;22.53;56.67;101084.03;144994;623;5002;-79
2021/10/11 11:07:52;;;;;;;7.25;1.42;;;;;;;22.49;56.90;101080.53;144994;574;5002;-78
2021/10/11 11:10:25;;;;;;;2.87;0.88;;;;;;;22.49;56.48;101067.31;144994;575;5002;-77
2021/10/11 11:12:57;;;;;;;4.22;1.37;;;;;;;22.43;56.84;101060.37;144994;601;5018;-76
2021/10/11 11:15:32;;;;;;;3.40;1.60;;;;;;;22.35;55.96;101067.53;144994;574;5002;-76
2021/10/11 11:18:01;;;;;;;3.00;0.93;;;;;;;22.39;56.83;101069.22;144994;666;5002;-78
2021/10/11 11:20:32;;;;;;;2.35;0.90;;;;;;;22.40;57.09;101076.28;144994;578;5002;-78
2021/10/11 11:23:08;;;;;;;2.45;1.45;;;;;;;22.43;56.91;101080.63;144994;569;4566;-81
2021/10/11 11:25:37;;;;;;;4.32;2.30;;;;;;;22.39;57.09;101071.88;144994;615;4572;-80
2021/10/11 11:28:06;;;;;;;4.07;2.08;;;;;;;22.38;57.35;101074.53;144994;591;4571;-80
2021/10/11 11:30:33;;;;;;;1.87;1.00;;;;;;;22.41;57.10;101058.62;144992;593;6002;-80
2021/10/11 11:33:30;;;;;;;1.55;0.37;;;;;;;22.34;57.07;101043.75;144992;569;6002;-77
2021/10/11 11:35:58;;;;;;;1.23;0.70;;;;;;;22.33;57.41;101042.00;144992;611;6005;-77
2021/10/11 11:38:29;;;;;;;5.62;3.72;;;;;;;22.34;57.29;101043.75;144992;581;6004;-78